createdAt,value
2023-02-08T00:01:57.781Z,41.17
2023-02-08T00:04:27.546Z,40.17
2023-02-08T00:06:57.097Z,41.30
2023-02-08T00:09:26.672Z,37.80
2023-02-08T00:11:56.241Z,38.90
2023-02-08T00:14:24.571Z,39.10
2023-02-08T00:16:52.975Z,42.15
2023-02-08T00:19:21.980Z,40.15
2023-02-08T00:21:52.863Z,43.63
2023-02-08T00:24:21.213Z,38.28
2023-02-08T00:26:49.537Z,41.45
2023-02-08T00:29:18.664Z,37.33
2023-02-08T00:31:48.349Z,38.20
2023-02-08T00:34:18.296Z,41.22
2023-02-08T00:36:48.037Z,43.55
2023-02-08T00:39:21.376Z,46.85
2023-02-08T00:41:52.156Z,37.92
2023-02-08T00:44:21.824Z,39.45
2023-02-08T00:46:51.392Z,40.08
2023-02-08T00:49:20.912Z,39.28
2023-02-08T00:51:50.968Z,41.15
2023-02-08T00:54:22.089Z,41.00
2023-02-08T00:56:52.820Z,40.17
2023-02-08T00:59:21.445Z,40.03
2023-02-08T01:01:52.416Z,40.38
2023-02-08T01:04:22.151Z,38.70
2023-02-08T01:06:51.712Z,44.05
2023-02-08T01:09:21.404Z,42.47
2023-02-08T01:11:51.360Z,43.10
2023-02-08T01:14:20.871Z,43.45
2023-02-08T01:16:50.553Z,40.50
2023-02-08T01:19:19.013Z,39.35
2023-02-08T01:21:49.102Z,40.03
2023-02-08T01:24:20.029Z,38.63
2023-02-08T01:26:48.362Z,40.00
2023-02-08T01:29:18.332Z,38.42
2023-02-08T01:31:47.593Z,40.25
2023-02-08T01:34:16.074Z,49.72
2023-02-08T01:36:45.987Z,38.50
2023-02-08T01:39:14.361Z,37.58
2023-02-08T01:41:46.822Z,38.60
2023-02-08T01:44:54.427Z,41.63
2023-02-08T01:47:25.281Z,39.20
2023-02-08T01:49:55.106Z,41.88
2023-02-08T01:52:29.850Z,40.78
2023-02-08T01:55:04.136Z,41.00
2023-02-08T01:57:35.163Z,41.08
2023-02-08T02:00:08.391Z,39.75
2023-02-08T02:02:46.033Z,42.30
2023-02-08T02:05:16.932Z,38.63
2023-02-08T02:07:48.348Z,38.10
2023-02-08T02:10:22.599Z,39.22
2023-02-08T02:12:56.045Z,48.78
2023-02-08T02:17:53.631Z,41.75
2023-02-08T02:20:37.981Z,42.10
2023-02-08T02:23:54.826Z,41.28
2023-02-08T02:26:54.194Z,40.70
2023-02-08T02:30:26.191Z,46.80
2023-02-08T02:33:14.145Z,39.60
2023-02-08T02:35:53.321Z,41.97
2023-02-08T02:38:35.386Z,40.97
2023-02-08T02:41:11.884Z,39.22
2023-02-08T02:43:46.522Z,41.08
2023-02-08T02:46:25.612Z,39.47
2023-02-08T02:49:05.293Z,41.53
2023-02-08T02:51:39.534Z,40.03
2023-02-08T02:54:14.411Z,39.75
2023-02-08T02:56:48.431Z,48.75
2023-02-08T02:59:18.991Z,41.53
2023-02-08T03:01:49.497Z,43.13
2023-02-08T03:04:55.110Z,42.45
2023-02-08T03:07:49.870Z,40.75
2023-02-08T03:10:51.772Z,40.15
2023-02-08T03:13:33.553Z,50.90
2023-02-08T03:16:17.084Z,41.78
2023-02-08T03:19:02.907Z,49.13
2023-02-08T03:21:43.786Z,38.33
2023-02-08T03:24:23.942Z,44.22
2023-02-08T03:27:00.199Z,41.60
2023-02-08T03:29:43.631Z,41.08
2023-02-08T03:32:19.921Z,40.33
2023-02-08T03:34:54.768Z,42.53
2023-02-08T03:37:32.178Z,40.30
2023-02-08T03:40:07.473Z,41.17
2023-02-08T03:42:41.050Z,40.25
2023-02-08T03:45:16.272Z,39.72
2023-02-08T03:47:47.706Z,40.05
2023-02-08T03:50:20.518Z,41.08
2023-02-08T03:52:51.869Z,40.58
2023-02-08T03:55:25.971Z,40.63
2023-02-08T03:58:01.548Z,41.33
2023-02-08T04:00:34.429Z,41.40
2023-02-08T04:03:11.356Z,39.67
2023-02-08T04:05:41.759Z,41.97
2023-02-08T04:08:12.688Z,43.10
2023-02-08T04:13:11.724Z,40.63
2023-02-08T04:15:40.184Z,41.45
2023-02-08T04:18:09.775Z,39.88
2023-02-08T04:20:39.641Z,41.45
2023-02-08T04:23:09.429Z,41.53
2023-02-08T04:25:39.040Z,42.15
2023-02-08T04:28:07.443Z,40.42
2023-02-08T04:30:36.997Z,41.92
2023-02-08T04:33:06.536Z,40.03
2023-02-08T04:35:34.476Z,42.08
2023-02-08T04:38:02.434Z,42.13
2023-02-08T04:40:31.082Z,40.20
2023-02-08T04:43:02.371Z,41.42
2023-02-08T04:45:32.141Z,41.97
2023-02-08T04:48:05.029Z,40.47
2023-02-08T04:50:33.348Z,41.67
2023-02-08T04:53:04.203Z,40.80
2023-02-08T04:55:33.823Z,37.22
2023-02-08T04:58:03.717Z,39.70
2023-02-08T05:00:32.612Z,39.00
2023-02-08T05:03:02.644Z,41.30
2023-02-08T05:05:32.680Z,40.85
2023-02-08T05:08:01.084Z,42.28
2023-02-08T05:10:29.520Z,41.58
2023-02-08T05:12:57.932Z,40.00
2023-02-08T05:15:27.650Z,39.85
2023-02-08T05:17:58.343Z,41.58
2023-02-08T05:20:26.674Z,41.05
2023-02-08T05:22:56.189Z,40.47
2023-02-08T05:25:25.756Z,42.13
2023-02-08T05:27:56.533Z,41.58
2023-02-08T05:30:24.818Z,41.67
2023-02-08T05:32:57.133Z,41.88
2023-02-08T05:35:26.700Z,39.78
2023-02-08T05:37:54.995Z,42.40
2023-02-08T05:40:23.369Z,40.72
2023-02-08T05:42:52.585Z,43.58
2023-02-08T05:45:20.532Z,40.35
2023-02-08T05:47:49.828Z,41.78
2023-02-08T05:50:19.645Z,42.28
2023-02-08T05:52:53.446Z,49.50
2023-02-08T05:55:21.375Z,41.25
2023-02-08T05:57:52.077Z,37.80
2023-02-08T06:00:21.966Z,37.80
2023-02-08T06:02:51.551Z,35.97
2023-02-08T06:05:22.119Z,35.60
2023-02-08T06:07:51.728Z,35.92
2023-02-08T06:10:20.914Z,40.92
2023-02-08T06:12:50.796Z,40.85
2023-02-08T06:15:20.404Z,40.05
2023-02-08T06:17:49.693Z,40.95
2023-02-08T06:20:19.553Z,49.92
2023-02-08T06:22:51.654Z,40.78
2023-02-08T06:25:20.139Z,40.75
2023-02-08T06:27:48.536Z,41.13
2023-02-08T06:30:17.106Z,39.83
2023-02-08T06:32:45.155Z,41.60
2023-02-08T06:35:13.499Z,40.97
2023-02-08T06:37:43.009Z,40.92
2023-02-08T06:40:12.976Z,34.80
2023-02-08T06:42:42.980Z,35.73
2023-02-08T06:45:13.748Z,38.63
2023-02-08T06:47:43.327Z,48.17
2023-02-08T06:50:14.709Z,41.67
2023-02-08T06:52:45.469Z,42.95
2023-02-08T06:55:15.593Z,40.95
2023-02-08T06:57:43.943Z,42.00
2023-02-08T07:00:13.455Z,43.33
2023-02-08T07:02:44.134Z,41.28
2023-02-08T07:05:12.028Z,39.55
2023-02-08T07:07:42.828Z,40.65
2023-02-08T07:10:11.310Z,40.83
2023-02-08T07:12:40.974Z,42.45
2023-02-08T07:15:13.099Z,38.08
2023-02-08T07:20:13.532Z,34.25
2023-02-08T07:22:43.505Z,36.00
2023-02-08T07:25:11.956Z,34.63
2023-02-08T07:27:42.969Z,35.78
2023-02-08T07:30:12.169Z,34.55
2023-02-08T07:32:42.863Z,34.25
2023-02-08T07:35:12.347Z,33.92
2023-02-08T07:37:41.860Z,34.70
2023-02-08T07:40:13.037Z,32.97
2023-02-08T07:42:43.872Z,41.97
2023-02-08T07:45:29.168Z,34.17
2023-02-08T07:48:02.586Z,38.50
2023-02-08T07:50:33.899Z,34.65
2023-02-08T07:53:03.457Z,35.05
2023-02-08T07:55:33.052Z,34.25
2023-02-08T07:58:02.800Z,35.40
2023-02-08T08:00:33.936Z,34.67
2023-02-08T08:03:04.135Z,34.33
2023-02-08T08:05:35.519Z,35.88
2023-02-08T08:08:04.674Z,37.38
2023-02-08T08:10:33.146Z,36.95
2023-02-08T08:13:02.819Z,37.72
2023-02-08T08:15:31.395Z,37.60
2023-02-08T08:18:00.086Z,37.45
2023-02-08T08:20:29.776Z,37.08
2023-02-08T08:22:59.744Z,37.20
2023-02-08T08:25:28.431Z,39.70
2023-02-08T08:27:58.857Z,36.38
2023-02-08T08:30:30.794Z,36.92
2023-02-08T08:33:00.411Z,37.45
2023-02-08T08:35:30.232Z,38.05
2023-02-08T08:37:59.023Z,42.17
2023-02-08T08:40:28.617Z,40.00
2023-02-08T08:42:57.473Z,40.38
2023-02-08T08:45:26.000Z,41.30
2023-02-08T08:47:58.458Z,40.55
2023-02-08T08:50:27.850Z,40.78
2023-02-08T08:52:58.093Z,40.38
2023-02-08T08:55:28.280Z,39.92
2023-02-08T08:57:57.004Z,44.25
2023-02-08T09:00:27.602Z,45.50
2023-02-08T09:02:59.236Z,45.20
2023-02-08T09:05:27.228Z,46.38
2023-02-08T09:07:55.621Z,42.92
2023-02-08T09:10:24.026Z,41.15
2023-02-08T09:12:52.959Z,43.25
2023-02-08T09:15:22.382Z,44.20
2023-02-08T09:17:51.991Z,47.92
2023-02-08T09:20:30.012Z,47.88
2023-02-08T09:23:01.004Z,46.60
2023-02-08T09:25:29.020Z,46.30
2023-02-08T09:27:59.585Z,45.30
2023-02-08T09:30:30.269Z,44.58
2023-02-08T09:33:01.334Z,46.40
2023-02-08T09:35:32.039Z,46.70
2023-02-08T09:38:04.480Z,45.47
2023-02-08T09:40:49.694Z,44.13
2023-02-08T09:43:27.421Z,46.10
2023-02-08T09:46:02.368Z,47.25
2023-02-08T09:48:38.291Z,45.03
2023-02-08T09:51:16.209Z,42.97
2023-02-08T09:53:51.537Z,48.25
2023-02-08T09:56:27.391Z,48.83
2023-02-08T09:58:59.654Z,47.15
2023-02-08T10:01:32.260Z,44.47
2023-02-08T10:04:09.887Z,46.00
2023-02-08T10:06:40.966Z,47.03
2023-02-08T10:09:15.728Z,46.63
2023-02-08T10:11:59.427Z,46.72
2023-02-08T10:14:54.476Z,44.55
2023-02-08T10:18:00.789Z,44.63
2023-02-08T10:20:45.948Z,44.58
2023-02-08T10:23:46.260Z,46.90
2023-02-08T10:26:25.946Z,45.75
2023-02-08T10:29:26.865Z,47.28
2023-02-08T10:32:15.924Z,46.30
2023-02-08T10:34:50.273Z,46.65
2023-02-08T10:37:22.237Z,48.30
2023-02-08T10:39:54.382Z,46.15
2023-02-08T10:42:27.715Z,45.25
2023-02-08T10:45:24.004Z,45.28
2023-02-08T10:47:56.413Z,48.30
2023-02-08T10:50:35.524Z,46.40
2023-02-08T11:00:41.371Z,48.20
2023-02-08T11:03:19.924Z,46.42
2023-02-08T11:05:49.892Z,46.03
2023-02-08T11:08:20.458Z,46.53
2023-02-08T11:10:59.976Z,48.10
2023-02-08T11:13:37.962Z,47.65
2023-02-08T11:16:08.652Z,46.05
2023-02-08T11:18:42.990Z,47.38
2023-02-08T11:21:25.612Z,48.03
2023-02-08T11:23:59.143Z,49.22
2023-02-08T11:26:37.684Z,48.08
2023-02-08T11:29:15.354Z,50.50
2023-02-08T11:32:01.346Z,46.75
2023-02-08T11:34:34.369Z,47.20
2023-02-08T11:37:05.460Z,47.58
2023-02-08T11:39:42.058Z,46.30
2023-02-08T11:42:22.918Z,42.65
2023-02-08T11:44:52.945Z,56.75
2023-02-08T11:47:27.267Z,45.88
2023-02-08T11:50:00.043Z,45.90
2023-02-08T11:52:32.515Z,45.95
2023-02-08T11:55:16.844Z,46.25
2023-02-08T11:57:56.652Z,46.38
2023-02-08T12:00:28.099Z,45.88
2023-02-08T12:03:01.066Z,47.03
2023-02-08T12:05:43.435Z,45.33
2023-02-08T12:08:23.995Z,46.85
2023-02-08T12:11:16.894Z,49.28
2023-02-08T12:14:07.109Z,48.40
2023-02-08T12:17:00.023Z,45.67
2023-02-08T12:19:57.252Z,48.67
2023-02-08T12:22:28.577Z,48.38
2023-02-08T12:25:20.032Z,47.08
2023-02-08T12:28:00.643Z,49.40
2023-02-08T12:30:35.248Z,48.40
2023-02-08T12:33:35.798Z,48.22
2023-02-08T12:36:26.121Z,49.33
2023-02-08T13:26:42.874Z,41.50
2023-02-08T13:29:20.683Z,56.15
2023-02-08T13:50:00.017Z,36.40
2023-02-08T13:52:52.883Z,39.00
2023-02-08T15:19:08.459Z,47.17
2023-02-08T15:21:41.425Z,44.63
2023-02-08T15:24:17.705Z,44.17
2023-02-08T15:26:50.863Z,43.97
2023-02-08T15:29:30.098Z,41.45
2023-02-08T15:32:05.324Z,42.53
2023-02-08T15:34:37.705Z,44.35
2023-02-08T15:37:16.890Z,44.22
2023-02-08T15:39:51.522Z,42.50
2023-02-08T15:42:22.720Z,41.72
2023-02-08T15:44:54.744Z,42.97
2023-02-08T15:47:27.838Z,42.20
2023-02-08T15:49:58.978Z,41.05
2023-02-08T15:52:32.663Z,47.88
2023-02-08T15:55:03.080Z,41.22
2023-02-08T15:57:44.154Z,42.50
2023-02-08T16:00:33.932Z,46.08
2023-02-08T16:03:08.411Z,42.42
2023-02-08T16:05:39.052Z,41.78
2023-02-08T16:08:09.037Z,39.72
2023-02-08T16:10:45.342Z,42.85
2023-02-08T16:13:21.348Z,42.17
2023-02-08T16:16:07.229Z,43.42
2023-02-08T16:18:45.979Z,40.50
2023-02-08T16:21:29.576Z,40.33
2023-02-08T16:24:04.983Z,38.45
2023-02-08T16:26:43.132Z,37.58
2023-02-08T16:29:20.571Z,42.22
2023-02-08T16:31:57.827Z,40.88
2023-02-08T16:34:28.295Z,39.10
2023-02-08T16:36:56.882Z,38.92
2023-02-08T16:39:39.236Z,38.03
2023-02-08T16:42:23.021Z,36.38
2023-02-08T16:45:02.445Z,37.35
2023-02-08T16:47:41.625Z,39.55
2023-02-08T16:50:13.095Z,32.42
2023-02-08T16:52:43.593Z,31.73
2023-02-08T16:55:20.441Z,31.67
2023-02-08T16:57:51.128Z,33.05
2023-02-08T17:00:26.637Z,37.05
2023-02-08T17:02:58.640Z,39.17
2023-02-08T17:05:31.577Z,35.92
2023-02-08T17:08:01.683Z,37.42
2023-02-08T17:10:33.864Z,39.40
2023-02-08T17:13:19.218Z,37.40
2023-02-08T17:15:52.779Z,34.40
2023-02-08T17:18:24.014Z,32.20
2023-02-08T17:20:58.925Z,34.53
2023-02-08T17:23:30.201Z,33.28
2023-02-08T17:26:00.185Z,34.47
2023-02-08T17:28:28.820Z,34.53
2023-02-08T17:30:58.413Z,32.53
2023-02-08T17:33:29.313Z,33.83
2023-02-08T17:35:59.144Z,32.22
2023-02-08T17:38:29.058Z,32.53
2023-02-08T17:41:01.407Z,31.60
2023-02-08T17:43:30.881Z,32.05
2023-02-08T17:46:00.723Z,32.03
2023-02-08T17:48:31.710Z,33.08
2023-02-08T17:51:01.634Z,31.58
2023-02-08T17:53:30.255Z,32.88
2023-02-08T17:56:01.020Z,31.73
2023-02-08T17:58:31.532Z,34.17
2023-02-08T18:01:00.220Z,32.08
2023-02-08T18:03:31.254Z,33.35
2023-02-08T18:06:01.318Z,32.45
2023-02-08T18:08:30.949Z,34.00
2023-02-08T18:11:05.181Z,32.13
2023-02-08T18:13:36.670Z,32.25
2023-02-08T18:16:11.051Z,32.25
2023-02-08T18:18:42.386Z,31.50
2023-02-08T18:21:14.138Z,31.08
2023-02-08T18:23:43.935Z,33.15
2023-02-08T18:26:14.953Z,31.50
2023-02-08T18:31:15.431Z,31.45
2023-02-08T18:33:47.617Z,29.38
2023-02-08T18:36:18.446Z,29.65
2023-02-08T18:38:50.231Z,31.08
2023-02-08T18:41:26.224Z,30.45
2023-02-08T18:43:57.102Z,30.15
2023-02-08T18:46:31.025Z,30.42
2023-02-08T18:49:00.880Z,29.45
2023-02-08T18:51:31.941Z,29.92
2023-02-08T18:54:00.636Z,31.05
2023-02-08T18:56:29.972Z,29.75
2023-02-08T18:59:01.189Z,30.95
2023-02-08T19:01:31.111Z,29.00
2023-02-08T19:04:00.956Z,29.73
2023-02-08T19:06:31.810Z,28.92
2023-02-08T19:09:03.154Z,30.65
2023-02-08T19:11:35.224Z,29.38
2023-02-08T19:14:08.606Z,30.25
2023-02-08T19:16:39.576Z,29.52
2023-02-08T19:19:11.218Z,29.92
2023-02-08T19:21:41.637Z,30.23
2023-02-08T19:24:14.707Z,30.00
2023-02-08T19:26:44.658Z,31.70
2023-02-08T19:29:16.021Z,29.10
2023-02-08T19:31:49.305Z,33.35
2023-02-08T19:34:20.539Z,30.42
2023-02-08T19:36:53.111Z,32.70
2023-02-08T19:39:25.361Z,31.80
2023-02-08T19:41:58.507Z,32.85
2023-02-08T19:44:30.680Z,30.33
2023-02-08T19:46:59.333Z,31.60
2023-02-08T19:49:29.047Z,31.67
2023-02-08T19:51:58.995Z,29.75
2023-02-08T19:54:31.210Z,32.33
2023-02-08T19:57:00.810Z,29.95
2023-02-08T19:59:33.131Z,30.63
2023-02-08T20:02:04.694Z,29.58
2023-02-08T20:04:35.814Z,29.77
2023-02-08T20:07:05.994Z,31.30
2023-02-08T20:09:34.912Z,32.42
2023-02-08T20:12:06.573Z,34.08
2023-02-08T20:14:36.167Z,35.13
2023-02-08T20:17:07.201Z,34.22
2023-02-08T20:19:38.898Z,34.85
2023-02-08T20:22:09.735Z,34.22
2023-02-08T20:24:39.396Z,34.30
2023-02-08T20:27:10.192Z,34.33
2023-02-08T20:29:39.732Z,35.13
2023-02-08T20:32:10.876Z,36.35
2023-02-08T20:34:53.903Z,35.97
2023-02-08T20:37:27.314Z,34.65
2023-02-08T20:39:56.951Z,36.40
2023-02-08T20:42:26.546Z,36.22
2023-02-08T20:44:56.088Z,35.97
2023-02-08T20:47:28.532Z,35.40
2023-02-08T20:50:05.051Z,35.10
2023-02-08T20:52:40.115Z,34.75
2023-02-08T20:55:12.710Z,34.80
2023-02-08T20:57:42.363Z,36.20
2023-02-08T21:00:14.024Z,31.35
2023-02-08T21:02:44.866Z,30.48
2023-02-08T21:05:15.800Z,29.13
2023-02-08T21:07:46.558Z,30.10
2023-02-08T21:10:14.976Z,29.27
2023-02-08T21:12:45.790Z,29.75
2023-02-08T21:15:15.017Z,29.17
2023-02-08T21:17:43.432Z,30.25
2023-02-08T21:20:14.506Z,29.73
2023-02-08T21:22:44.742Z,29.67
2023-02-08T21:25:14.517Z,29.88
2023-02-08T21:27:44.185Z,29.92
2023-02-08T21:30:14.122Z,29.25
2023-02-08T21:32:45.188Z,29.35
2023-02-08T21:35:13.508Z,28.95
2023-02-08T21:37:44.361Z,28.98
2023-02-08T21:40:14.370Z,28.65
2023-02-08T21:42:45.115Z,28.83
2023-02-08T21:45:14.890Z,27.33
2023-02-08T21:47:45.637Z,28.13
2023-02-08T21:50:31.557Z,27.88
2023-02-08T21:53:21.141Z,27.70
2023-02-08T21:55:50.709Z,27.58
2023-02-08T21:58:21.483Z,28.15
2023-02-08T22:00:49.802Z,30.00
2023-02-08T22:03:19.399Z,28.13
2023-02-08T22:06:06.588Z,29.40
2023-02-08T22:08:37.484Z,28.40
2023-02-08T22:11:08.028Z,29.05
2023-02-08T22:13:38.432Z,28.98
2023-02-08T22:16:09.120Z,28.40
2023-02-08T22:18:42.518Z,28.17
2023-02-08T22:23:42.813Z,28.38
2023-02-08T22:28:41.376Z,28.83
2023-02-08T22:31:10.678Z,24.75
2023-02-08T22:33:39.106Z,26.60
2023-02-08T22:36:10.588Z,28.40
2023-02-08T22:38:40.722Z,28.50
2023-02-08T22:41:13.178Z,29.50
2023-02-08T22:43:44.055Z,29.75
2023-02-08T22:46:14.265Z,29.02
2023-02-08T22:48:45.026Z,30.08
2023-02-08T22:51:17.472Z,29.10
2023-02-08T22:53:47.286Z,29.88
2023-02-08T22:56:18.233Z,29.00
2023-02-08T23:01:18.393Z,34.63
2023-02-08T23:03:47.982Z,34.33
2023-02-08T23:06:18.673Z,33.80
2023-02-08T23:08:48.197Z,35.20
2023-02-08T23:11:20.717Z,33.50
2023-02-08T23:13:51.474Z,34.60
2023-02-08T23:16:20.916Z,34.47
2023-02-08T23:18:49.505Z,35.70
2023-02-08T23:21:20.737Z,35.50
2023-02-08T23:23:51.677Z,34.50
2023-02-08T23:26:22.698Z,34.13
2023-02-08T23:28:53.993Z,38.80
2023-02-08T23:31:23.467Z,34.65
2023-02-08T23:33:53.115Z,35.78
2023-02-08T23:36:24.123Z,34.72
2023-02-08T23:38:54.867Z,35.40
2023-02-08T23:41:25.175Z,34.88
2023-02-08T23:43:55.890Z,36.60
2023-02-08T23:46:26.789Z,34.20
2023-02-08T23:48:58.059Z,34.65
2023-02-08T23:51:27.625Z,36.23
2023-02-08T23:53:58.345Z,33.42
2023-02-08T23:56:29.787Z,40.65
2023-02-08T23:59:01.299Z,32.77
